sensor_id;sensor_type;location;lat;lon;timestamp;P1;durP1;ratioP1;P2;durP2;ratioP2
13291;SDS011;6714;53.056;8.690;2023-01-19T00:00:55;10.47;;;8.83;;
13291;SDS011;6714;53.056;8.690;2023-01-19T00:03:37;12.17;;;8.60;;
13291;SDS011;6714;53.056;8.690;2023-01-19T00:06:20;11.57;;;8.37;;
13291;SDS011;6714;53.056;8.690;2023-01-19T00:09:03;12.00;;;9.10;;
13291;SDS011;6714;53.056;8.690;2023-01-19T00:11:45;13.43;;;9.73;;
13291;SDS011;6714;53.056;8.690;2023-01-19T00:14:27;11.67;;;8.70;;
13291;SDS011;6714;53.056;8.690;2023-01-19T00:17:10;11.33;;;9.10;;
13291;SDS011;6714;53.056;8.690;2023-01-19T00:19:52;11.87;;;8.97;;
13291;SDS011;6714;53.056;8.690;2023-01-19T00:22:35;11.07;;;8.87;;
13291;SDS011;6714;53.056;8.690;2023-01-19T00:25:18;18.00;;;11.73;;
13291;SDS011;6714;53.056;8.690;2023-01-19T00:28:00;15.93;;;10.67;;
13291;SDS011;6714;53.056;8.690;2023-01-19T00:30:42;11.70;;;8.87;;
13291;SDS011;6714;53.056;8.690;2023-01-19T00:33:25;13.57;;;11.07;;
13291;SDS011;6714;53.056;8.690;2023-01-19T00:36:08;10.37;;;8.67;;
13291;SDS011;6714;53.056;8.690;2023-01-19T00:38:52;10.00;;;8.37;;
13291;SDS011;6714;53.056;8.690;2023-01-19T00:41:34;15.40;;;11.43;;
13291;SDS011;6714;53.056;8.690;2023-01-19T00:44:34;16.43;;;12.80;;
13291;SDS011;6714;53.056;8.690;2023-01-19T00:47:16;11.67;;;8.50;;
13291;SDS011;6714;53.056;8.690;2023-01-19T00:49:58;12.13;;;9.83;;
13291;SDS011;6714;53.056;8.690;2023-01-19T00:52:41;17.37;;;11.43;;
13291;SDS011;6714;53.056;8.690;2023-01-19T00:55:25;12.60;;;8.80;;
13291;SDS011;6714;53.056;8.690;2023-01-19T00:58:08;11.77;;;9.37;;
13291;SDS011;6714;53.056;8.690;2023-01-19T01:00:51;12.23;;;9.30;;
13291;SDS011;6714;53.056;8.690;2023-01-19T01:03:36;14.27;;;10.03;;
13291;SDS011;6714;53.056;8.690;2023-01-19T01:06:18;12.07;;;10.00;;
13291;SDS011;6714;53.056;8.690;2023-01-19T01:09:00;11.43;;;9.30;;
13291;SDS011;6714;53.056;8.690;2023-01-19T01:11:52;11.37;;;8.93;;
13291;SDS011;6714;53.056;8.690;2023-01-19T01:14:34;10.97;;;9.20;;
13291;SDS011;6714;53.056;8.690;2023-01-19T01:17:16;16.43;;;11.93;;
13291;SDS011;6714;53.056;8.690;2023-01-19T01:20:04;16.67;;;13.63;;
13291;SDS011;6714;53.056;8.690;2023-01-19T01:22:47;13.13;;;9.87;;
13291;SDS011;6714;53.056;8.690;2023-01-19T01:25:30;11.40;;;10.20;;
13291;SDS011;6714;53.056;8.690;2023-01-19T01:28:18;10.77;;;8.30;;
13291;SDS011;6714;53.056;8.690;2023-01-19T01:31:00;9.53;;;8.53;;
13291;SDS011;6714;53.056;8.690;2023-01-19T01:33:42;11.77;;;9.20;;
13291;SDS011;6714;53.056;8.690;2023-01-19T01:36:25;13.63;;;10.13;;
13291;SDS011;6714;53.056;8.690;2023-01-19T01:39:10;12.67;;;11.37;;
13291;SDS011;6714;53.056;8.690;2023-01-19T01:41:53;12.40;;;10.10;;
13291;SDS011;6714;53.056;8.690;2023-01-19T01:44:47;13.30;;;11.00;;
13291;SDS011;6714;53.056;8.690;2023-01-19T01:47:31;14.33;;;10.97;;
13291;SDS011;6714;53.056;8.690;2023-01-19T01:50:16;13.07;;;10.07;;
13291;SDS011;6714;53.056;8.690;2023-01-19T01:53:00;14.67;;;12.07;;
13291;SDS011;6714;53.056;8.690;2023-01-19T01:55:44;10.90;;;9.03;;
13291;SDS011;6714;53.056;8.690;2023-01-19T01:58:27;12.13;;;10.13;;
13291;SDS011;6714;53.056;8.690;2023-01-19T02:01:11;14.90;;;11.27;;
13291;SDS011;6714;53.056;8.690;2023-01-19T02:04:10;14.10;;;11.73;;
13291;SDS011;6714;53.056;8.690;2023-01-19T02:06:53;16.57;;;11.80;;
13291;SDS011;6714;53.056;8.690;2023-01-19T02:09:53;12.37;;;10.27;;
13291;SDS011;6714;53.056;8.690;2023-01-19T02:12:52;10.10;;;9.00;;
13291;SDS011;6714;53.056;8.690;2023-01-19T02:15:54;15.57;;;12.37;;
13291;SDS011;6714;53.056;8.690;2023-01-19T02:18:38;14.03;;;11.57;;
13291;SDS011;6714;53.056;8.690;2023-01-19T02:21:21;16.67;;;13.03;;
13291;SDS011;6714;53.056;8.690;2023-01-19T02:24:06;13.23;;;10.30;;
13291;SDS011;6714;53.056;8.690;2023-01-19T02:26:48;13.43;;;10.70;;
13291;SDS011;6714;53.056;8.690;2023-01-19T02:29:31;16.37;;;12.77;;
13291;SDS011;6714;53.056;8.690;2023-01-19T02:32:14;12.33;;;10.27;;
13291;SDS011;6714;53.056;8.690;2023-01-19T02:34:56;14.57;;;10.97;;
13291;SDS011;6714;53.056;8.690;2023-01-19T02:37:39;14.63;;;10.90;;
13291;SDS011;6714;53.056;8.690;2023-01-19T02:40:23;13.33;;;11.20;;
13291;SDS011;6714;53.056;8.690;2023-01-19T02:43:06;14.00;;;11.13;;
13291;SDS011;6714;53.056;8.690;2023-01-19T02:45:50;11.63;;;9.43;;
13291;SDS011;6714;53.056;8.690;2023-01-19T02:48:32;13.80;;;10.80;;
13291;SDS011;6714;53.056;8.690;2023-01-19T02:51:15;12.30;;;9.37;;
13291;SDS011;6714;53.056;8.690;2023-01-19T02:54:08;15.33;;;11.60;;
13291;SDS011;6714;53.056;8.690;2023-01-19T02:57:02;12.60;;;10.27;;
13291;SDS011;6714;53.056;8.690;2023-01-19T02:59:57;10.80;;;9.50;;
13291;SDS011;6714;53.056;8.690;2023-01-19T03:02:49;14.97;;;12.27;;
13291;SDS011;6714;53.056;8.690;2023-01-19T03:05:38;12.87;;;11.53;;
13291;SDS011;6714;53.056;8.690;2023-01-19T03:08:29;13.17;;;11.03;;
13291;SDS011;6714;53.056;8.690;2023-01-19T03:11:13;15.47;;;11.97;;
13291;SDS011;6714;53.056;8.690;2023-01-19T03:13:57;12.70;;;11.03;;
13291;SDS011;6714;53.056;8.690;2023-01-19T03:16:43;12.43;;;10.63;;
13291;SDS011;6714;53.056;8.690;2023-01-19T03:19:27;12.47;;;10.40;;
13291;SDS011;6714;53.056;8.690;2023-01-19T03:22:14;14.87;;;13.10;;
13291;SDS011;6714;53.056;8.690;2023-01-19T03:24:58;12.30;;;10.00;;
13291;SDS011;6714;53.056;8.690;2023-01-19T03:27:41;12.70;;;11.17;;
13291;SDS011;6714;53.056;8.690;2023-01-19T03:30:26;11.37;;;10.20;;
13291;SDS011;6714;53.056;8.690;2023-01-19T03:33:10;15.73;;;11.93;;
13291;SDS011;6714;53.056;8.690;2023-01-19T03:35:55;11.00;;;9.90;;
13291;SDS011;6714;53.056;8.690;2023-01-19T03:38:42;12.80;;;10.13;;
13291;SDS011;6714;53.056;8.690;2023-01-19T03:41:27;12.60;;;11.17;;
13291;SDS011;6714;53.056;8.690;2023-01-19T03:44:11;14.00;;;11.90;;
13291;SDS011;6714;53.056;8.690;2023-01-19T03:46:54;11.57;;;10.00;;
13291;SDS011;6714;53.056;8.690;2023-01-19T03:49:38;12.27;;;10.33;;
13291;SDS011;6714;53.056;8.690;2023-01-19T03:52:27;15.17;;;10.83;;
13291;SDS011;6714;53.056;8.690;2023-01-19T03:55:11;14.00;;;12.17;;
13291;SDS011;6714;53.056;8.690;2023-01-19T03:57:53;14.63;;;11.93;;
13291;SDS011;6714;53.056;8.690;2023-01-19T04:00:36;11.97;;;10.57;;
13291;SDS011;6714;53.056;8.690;2023-01-19T04:03:21;12.53;;;10.77;;
13291;SDS011;6714;53.056;8.690;2023-01-19T04:06:03;10.73;;;9.43;;
13291;SDS011;6714;53.056;8.690;2023-01-19T04:08:46;13.00;;;10.23;;
13291;SDS011;6714;53.056;8.690;2023-01-19T04:11:28;11.77;;;10.40;;
13291;SDS011;6714;53.056;8.690;2023-01-19T04:14:11;12.43;;;10.00;;
13291;SDS011;6714;53.056;8.690;2023-01-19T04:16:53;11.37;;;8.97;;
13291;SDS011;6714;53.056;8.690;2023-01-19T04:19:37;12.60;;;11.20;;
13291;SDS011;6714;53.056;8.690;2023-01-19T04:22:19;13.77;;;10.00;;
13291;SDS011;6714;53.056;8.690;2023-01-19T04:25:01;11.63;;;10.43;;
13291;SDS011;6714;53.056;8.690;2023-01-19T04:27:43;13.60;;;11.63;;
13291;SDS011;6714;53.056;8.690;2023-01-19T04:30:26;11.97;;;10.50;;
13291;SDS011;6714;53.056;8.690;2023-01-19T04:33:08;12.83;;;11.53;;
13291;SDS011;6714;53.056;8.690;2023-01-19T04:35:51;13.07;;;10.73;;
13291;SDS011;6714;53.056;8.690;2023-01-19T04:38:35;10.47;;;9.37;;
13291;SDS011;6714;53.056;8.690;2023-01-19T04:41:17;10.47;;;9.47;;
13291;SDS011;6714;53.056;8.690;2023-01-19T04:43:59;13.20;;;11.50;;
13291;SDS011;6714;53.056;8.690;2023-01-19T04:46:42;13.37;;;10.97;;
13291;SDS011;6714;53.056;8.690;2023-01-19T04:49:24;15.63;;;13.40;;
13291;SDS011;6714;53.056;8.690;2023-01-19T04:52:08;12.00;;;10.57;;
13291;SDS011;6714;53.056;8.690;2023-01-19T04:54:50;12.10;;;10.37;;
13291;SDS011;6714;53.056;8.690;2023-01-19T04:57:32;10.33;;;9.30;;
13291;SDS011;6714;53.056;8.690;2023-01-19T05:00:15;14.20;;;12.20;;
13291;SDS011;6714;53.056;8.690;2023-01-19T05:02:57;13.53;;;11.50;;
13291;SDS011;6714;53.056;8.690;2023-01-19T05:05:40;11.30;;;9.50;;
13291;SDS011;6714;53.056;8.690;2023-01-19T05:08:23;17.23;;;14.70;;
13291;SDS011;6714;53.056;8.690;2023-01-19T05:11:05;13.30;;;11.83;;
13291;SDS011;6714;53.056;8.690;2023-01-19T05:13:48;14.23;;;12.57;;
13291;SDS011;6714;53.056;8.690;2023-01-19T05:16:30;15.17;;;13.30;;
13291;SDS011;6714;53.056;8.690;2023-01-19T05:19:12;10.80;;;9.70;;
13291;SDS011;6714;53.056;8.690;2023-01-19T05:21:54;14.07;;;11.30;;
13291;SDS011;6714;53.056;8.690;2023-01-19T05:24:38;14.37;;;11.87;;
13291;SDS011;6714;53.056;8.690;2023-01-19T05:27:21;17.33;;;14.13;;
13291;SDS011;6714;53.056;8.690;2023-01-19T05:30:04;16.43;;;13.63;;
13291;SDS011;6714;53.056;8.690;2023-01-19T05:32:46;14.43;;;12.20;;
13291;SDS011;6714;53.056;8.690;2023-01-19T05:35:28;14.03;;;11.47;;
13291;SDS011;6714;53.056;8.690;2023-01-19T05:38:10;16.63;;;13.57;;
13291;SDS011;6714;53.056;8.690;2023-01-19T05:40:56;14.30;;;11.33;;
13291;SDS011;6714;53.056;8.690;2023-01-19T05:43:38;16.17;;;13.97;;
13291;SDS011;6714;53.056;8.690;2023-01-19T05:46:21;11.33;;;9.87;;
13291;SDS011;6714;53.056;8.690;2023-01-19T05:49:03;13.40;;;11.17;;
13291;SDS011;6714;53.056;8.690;2023-01-19T05:51:47;17.93;;;14.60;;
13291;SDS011;6714;53.056;8.690;2023-01-19T05:54:30;10.77;;;9.30;;
13291;SDS011;6714;53.056;8.690;2023-01-19T05:57:15;11.67;;;10.13;;
13291;SDS011;6714;53.056;8.690;2023-01-19T05:59:58;14.20;;;12.23;;
13291;SDS011;6714;53.056;8.690;2023-01-19T06:02:40;15.70;;;12.10;;
13291;SDS011;6714;53.056;8.690;2023-01-19T06:05:22;10.90;;;9.77;;
13291;SDS011;6714;53.056;8.690;2023-01-19T06:08:04;11.53;;;9.87;;
13291;SDS011;6714;53.056;8.690;2023-01-19T06:10:47;12.13;;;10.47;;
13291;SDS011;6714;53.056;8.690;2023-01-19T06:13:30;15.67;;;13.00;;
13291;SDS011;6714;53.056;8.690;2023-01-19T06:16:12;10.47;;;9.37;;
13291;SDS011;6714;53.056;8.690;2023-01-19T06:18:55;15.73;;;12.30;;
13291;SDS011;6714;53.056;8.690;2023-01-19T06:21:37;15.97;;;12.70;;
13291;SDS011;6714;53.056;8.690;2023-01-19T06:24:19;12.03;;;9.93;;
13291;SDS011;6714;53.056;8.690;2023-01-19T06:27:02;18.33;;;13.57;;
13291;SDS011;6714;53.056;8.690;2023-01-19T06:29:47;16.03;;;12.83;;
13291;SDS011;6714;53.056;8.690;2023-01-19T06:32:29;17.63;;;14.67;;
13291;SDS011;6714;53.056;8.690;2023-01-19T06:35:11;10.07;;;8.93;;
13291;SDS011;6714;53.056;8.690;2023-01-19T06:37:53;10.20;;;9.13;;
13291;SDS011;6714;53.056;8.690;2023-01-19T06:40:35;14.43;;;11.33;;
13291;SDS011;6714;53.056;8.690;2023-01-19T06:43:17;15.07;;;12.17;;
13291;SDS011;6714;53.056;8.690;2023-01-19T06:46:01;13.23;;;11.83;;
13291;SDS011;6714;53.056;8.690;2023-01-19T06:48:43;15.73;;;12.80;;
13291;SDS011;6714;53.056;8.690;2023-01-19T06:51:26;15.90;;;13.30;;
13291;SDS011;6714;53.056;8.690;2023-01-19T06:54:08;12.87;;;10.27;;
13291;SDS011;6714;53.056;8.690;2023-01-19T06:56:50;11.50;;;9.67;;
13291;SDS011;6714;53.056;8.690;2023-01-19T06:59:32;18.97;;;15.77;;
13291;SDS011;6714;53.056;8.690;2023-01-19T07:02:16;11.30;;;9.67;;
13291;SDS011;6714;53.056;8.690;2023-01-19T07:05:02;12.90;;;10.33;;
13291;SDS011;6714;53.056;8.690;2023-01-19T07:07:49;12.23;;;10.27;;
13291;SDS011;6714;53.056;8.690;2023-01-19T07:10:32;17.40;;;13.70;;
13291;SDS011;6714;53.056;8.690;2023-01-19T07:13:15;10.13;;;8.93;;
13291;SDS011;6714;53.056;8.690;2023-01-19T07:15:57;12.10;;;10.53;;
13291;SDS011;6714;53.056;8.690;2023-01-19T07:18:40;11.47;;;9.93;;
13291;SDS011;6714;53.056;8.690;2023-01-19T07:21:23;14.10;;;12.07;;
13291;SDS011;6714;53.056;8.690;2023-01-19T07:24:05;13.53;;;11.30;;
13291;SDS011;6714;53.056;8.690;2023-01-19T07:26:47;14.40;;;11.87;;
13291;SDS011;6714;53.056;8.690;2023-01-19T07:29:30;10.40;;;9.27;;
13291;SDS011;6714;53.056;8.690;2023-01-19T07:32:12;10.90;;;9.10;;
13291;SDS011;6714;53.056;8.690;2023-01-19T07:34:55;10.23;;;8.93;;
13291;SDS011;6714;53.056;8.690;2023-01-19T07:37:37;12.47;;;10.27;;
13291;SDS011;6714;53.056;8.690;2023-01-19T07:40:20;15.07;;;11.93;;
13291;SDS011;6714;53.056;8.690;2023-01-19T07:43:02;14.17;;;12.33;;
13291;SDS011;6714;53.056;8.690;2023-01-19T07:45:44;11.07;;;9.47;;
13291;SDS011;6714;53.056;8.690;2023-01-19T07:48:27;15.37;;;12.47;;
13291;SDS011;6714;53.056;8.690;2023-01-19T07:51:11;12.57;;;11.03;;
13291;SDS011;6714;53.056;8.690;2023-01-19T07:53:57;15.70;;;12.97;;
13291;SDS011;6714;53.056;8.690;2023-01-19T07:56:39;11.70;;;10.50;;
13291;SDS011;6714;53.056;8.690;2023-01-19T07:59:21;12.97;;;11.50;;
13291;SDS011;6714;53.056;8.690;2023-01-19T08:02:03;13.73;;;11.13;;
13291;SDS011;6714;53.056;8.690;2023-01-19T08:04:46;13.23;;;11.83;;
13291;SDS011;6714;53.056;8.690;2023-01-19T08:07:30;11.50;;;10.33;;
13291;SDS011;6714;53.056;8.690;2023-01-19T08:10:14;9.53;;;8.53;;
13291;SDS011;6714;53.056;8.690;2023-01-19T08:12:56;11.63;;;9.47;;
13291;SDS011;6714;53.056;8.690;2023-01-19T08:15:39;12.33;;;11.03;;
13291;SDS011;6714;53.056;8.690;2023-01-19T08:18:21;9.67;;;8.70;;
13291;SDS011;6714;53.056;8.690;2023-01-19T08:21:03;14.87;;;12.17;;
13291;SDS011;6714;53.056;8.690;2023-01-19T08:23:51;13.73;;;12.23;;
13291;SDS011;6714;53.056;8.690;2023-01-19T08:26:34;14.87;;;13.00;;
13291;SDS011;6714;53.056;8.690;2023-01-19T08:29:16;17.63;;;14.07;;
13291;SDS011;6714;53.056;8.690;2023-01-19T08:31:58;9.83;;;8.83;;
13291;SDS011;6714;53.056;8.690;2023-01-19T08:34:42;14.50;;;12.67;;
13291;SDS011;6714;53.056;8.690;2023-01-19T08:37:24;17.70;;;15.07;;
13291;SDS011;6714;53.056;8.690;2023-01-19T08:40:08;12.90;;;11.53;;
13291;SDS011;6714;53.056;8.690;2023-01-19T08:42:50;12.83;;;11.07;;
13291;SDS011;6714;53.056;8.690;2023-01-19T08:45:33;12.87;;;11.30;;
13291;SDS011;6714;53.056;8.690;2023-01-19T08:48:16;11.20;;;9.13;;
13291;SDS011;6714;53.056;8.690;2023-01-19T08:50:58;12.67;;;9.10;;
13291;SDS011;6714;53.056;8.690;2023-01-19T08:53:40;10.30;;;9.20;;
13291;SDS011;6714;53.056;8.690;2023-01-19T08:56:24;11.47;;;9.90;;
13291;SDS011;6714;53.056;8.690;2023-01-19T08:59:06;12.40;;;10.37;;
13291;SDS011;6714;53.056;8.690;2023-01-19T09:01:48;19.00;;;15.83;;
13291;SDS011;6714;53.056;8.690;2023-01-19T09:04:31;15.80;;;13.07;;
13291;SDS011;6714;53.056;8.690;2023-01-19T09:07:14;13.47;;;11.83;;
13291;SDS011;6714;53.056;8.690;2023-01-19T09:09:56;11.53;;;10.13;;
13291;SDS011;6714;53.056;8.690;2023-01-19T09:12:40;16.83;;;14.30;;
13291;SDS011;6714;53.056;8.690;2023-01-19T09:15:22;14.67;;;12.43;;
13291;SDS011;6714;53.056;8.690;2023-01-19T09:18:05;10.53;;;8.67;;
13291;SDS011;6714;53.056;8.690;2023-01-19T09:20:49;14.93;;;11.47;;
13291;SDS011;6714;53.056;8.690;2023-01-19T09:23:31;12.10;;;10.17;;
13291;SDS011;6714;53.056;8.690;2023-01-19T09:26:13;9.77;;;8.30;;
13291;SDS011;6714;53.056;8.690;2023-01-19T09:28:57;12.13;;;8.97;;
13291;SDS011;6714;53.056;8.690;2023-01-19T09:31:40;11.67;;;9.63;;
13291;SDS011;6714;53.056;8.690;2023-01-19T09:34:23;13.90;;;11.80;;
13291;SDS011;6714;53.056;8.690;2023-01-19T09:37:05;11.63;;;10.37;;
13291;SDS011;6714;53.056;8.690;2023-01-19T09:39:47;9.53;;;8.40;;
13291;SDS011;6714;53.056;8.690;2023-01-19T09:42:32;15.70;;;12.93;;
13291;SDS011;6714;53.056;8.690;2023-01-19T09:45:27;17.00;;;12.27;;
13291;SDS011;6714;53.056;8.690;2023-01-19T09:48:15;13.83;;;11.93;;
13291;SDS011;6714;53.056;8.690;2023-01-19T09:51:00;14.70;;;12.10;;
13291;SDS011;6714;53.056;8.690;2023-01-19T09:53:51;11.20;;;9.50;;
13291;SDS011;6714;53.056;8.690;2023-01-19T09:56:34;11.67;;;8.87;;
13291;SDS011;6714;53.056;8.690;2023-01-19T09:59:18;10.77;;;9.10;;
13291;SDS011;6714;53.056;8.690;2023-01-19T10:05:03;10.03;;;9.00;;
13291;SDS011;6714;53.056;8.690;2023-01-19T10:07:49;14.60;;;12.17;;
13291;SDS011;6714;53.056;8.690;2023-01-19T10:10:34;11.07;;;9.87;;
13291;SDS011;6714;53.056;8.690;2023-01-19T10:13:24;11.17;;;9.57;;
13291;SDS011;6714;53.056;8.690;2023-01-19T10:16:13;11.13;;;9.90;;
13291;SDS011;6714;53.056;8.690;2023-01-19T10:19:00;17.63;;;14.13;;
13291;SDS011;6714;53.056;8.690;2023-01-19T10:21:44;18.73;;;15.43;;
13291;SDS011;6714;53.056;8.690;2023-01-19T10:24:28;16.07;;;13.47;;
13291;SDS011;6714;53.056;8.690;2023-01-19T10:27:12;13.03;;;10.30;;
13291;SDS011;6714;53.056;8.690;2023-01-19T10:29:56;20.60;;;16.40;;
13291;SDS011;6714;53.056;8.690;2023-01-19T10:32:39;16.73;;;13.60;;
13291;SDS011;6714;53.056;8.690;2023-01-19T10:35:23;10.40;;;9.30;;
13291;SDS011;6714;53.056;8.690;2023-01-19T10:38:07;11.43;;;9.33;;
13291;SDS011;6714;53.056;8.690;2023-01-19T10:40:54;17.60;;;13.93;;
13291;SDS011;6714;53.056;8.690;2023-01-19T10:43:39;10.30;;;8.37;;
13291;SDS011;6714;53.056;8.690;2023-01-19T10:46:22;16.97;;;14.63;;
13291;SDS011;6714;53.056;8.690;2023-01-19T10:49:17;15.03;;;11.87;;
13291;SDS011;6714;53.056;8.690;2023-01-19T10:52:01;13.60;;;11.50;;
13291;SDS011;6714;53.056;8.690;2023-01-19T10:54:45;11.40;;;10.13;;
13291;SDS011;6714;53.056;8.690;2023-01-19T10:57:28;11.30;;;9.73;;
13291;SDS011;6714;53.056;8.690;2023-01-19T11:00:27;11.97;;;10.00;;
13291;SDS011;6714;53.056;8.690;2023-01-19T11:03:20;13.67;;;10.30;;
13291;SDS011;6714;53.056;8.690;2023-01-19T11:06:17;11.53;;;8.77;;
13291;SDS011;6714;53.056;8.690;2023-01-19T11:09:15;9.07;;;8.10;;
13291;SDS011;6714;53.056;8.690;2023-01-19T11:11:58;9.93;;;8.50;;
13291;SDS011;6714;53.056;8.690;2023-01-19T11:14:41;10.50;;;7.87;;
13291;SDS011;6714;53.056;8.690;2023-01-19T11:17:23;8.87;;;7.77;;
13291;SDS011;6714;53.056;8.690;2023-01-19T11:20:16;9.57;;;7.50;;
13291;SDS011;6714;53.056;8.690;2023-01-19T11:23:02;10.00;;;6.80;;
13291;SDS011;6714;53.056;8.690;2023-01-19T11:25:45;7.53;;;6.43;;
13291;SDS011;6714;53.056;8.690;2023-01-19T11:28:30;8.93;;;6.67;;
13291;SDS011;6714;53.056;8.690;2023-01-19T11:31:17;8.80;;;6.10;;
13291;SDS011;6714;53.056;8.690;2023-01-19T11:34:00;7.50;;;5.17;;
13291;SDS011;6714;53.056;8.690;2023-01-19T11:36:44;7.37;;;5.07;;
13291;SDS011;6714;53.056;8.690;2023-01-19T11:39:44;7.13;;;5.70;;
13291;SDS011;6714;53.056;8.690;2023-01-19T11:42:28;6.17;;;5.30;;
13291;SDS011;6714;53.056;8.690;2023-01-19T11:45:13;6.90;;;5.20;;
13291;SDS011;6714;53.056;8.690;2023-01-19T11:47:56;10.63;;;4.37;;
13291;SDS011;6714;53.056;8.690;2023-01-19T11:50:39;6.63;;;4.03;;
13291;SDS011;6714;53.056;8.690;2023-01-19T11:53:24;7.00;;;4.57;;
13291;SDS011;6714;53.056;8.690;2023-01-19T11:56:07;6.77;;;3.47;;
13291;SDS011;6714;53.056;8.690;2023-01-19T11:58:51;6.27;;;4.17;;
13291;SDS011;6714;53.056;8.690;2023-01-19T12:01:34;5.50;;;4.10;;
13291;SDS011;6714;53.056;8.690;2023-01-19T12:04:22;5.53;;;3.50;;
13291;SDS011;6714;53.056;8.690;2023-01-19T12:07:06;5.47;;;3.00;;
13291;SDS011;6714;53.056;8.690;2023-01-19T12:09:50;7.27;;;3.23;;
13291;SDS011;6714;53.056;8.690;2023-01-19T12:12:34;4.57;;;3.80;;
13291;SDS011;6714;53.056;8.690;2023-01-19T12:15:20;6.50;;;3.63;;
13291;SDS011;6714;53.056;8.690;2023-01-19T12:18:06;5.30;;;3.67;;
13291;SDS011;6714;53.056;8.690;2023-01-19T12:20:53;4.67;;;3.40;;
13291;SDS011;6714;53.056;8.690;2023-01-19T12:23:47;3.60;;;3.10;;
13291;SDS011;6714;53.056;8.690;2023-01-19T12:26:32;5.63;;;2.93;;
13291;SDS011;6714;53.056;8.690;2023-01-19T12:29:16;5.43;;;3.03;;
13291;SDS011;6714;53.056;8.690;2023-01-19T12:32:17;6.27;;;3.07;;
13291;SDS011;6714;53.056;8.690;2023-01-19T12:35:02;5.57;;;2.97;;
13291;SDS011;6714;53.056;8.690;2023-01-19T12:37:44;5.37;;;2.70;;
13291;SDS011;6714;53.056;8.690;2023-01-19T12:40:27;3.67;;;2.17;;
13291;SDS011;6714;53.056;8.690;2023-01-19T12:43:12;3.20;;;2.70;;
13291;SDS011;6714;53.056;8.690;2023-01-19T12:45:55;6.50;;;2.97;;
13291;SDS011;6714;53.056;8.690;2023-01-19T12:48:37;7.37;;;2.77;;
13291;SDS011;6714;53.056;8.690;2023-01-19T12:51:24;6.57;;;2.50;;
13291;SDS011;6714;53.056;8.690;2023-01-19T12:54:07;3.57;;;2.40;;
13291;SDS011;6714;53.056;8.690;2023-01-19T12:56:57;6.73;;;2.50;;
13291;SDS011;6714;53.056;8.690;2023-01-19T12:59:41;3.87;;;2.17;;
13291;SDS011;6714;53.056;8.690;2023-01-19T13:02:39;7.03;;;2.33;;
13291;SDS011;6714;53.056;8.690;2023-01-19T13:05:23;5.63;;;2.70;;
13291;SDS011;6714;53.056;8.690;2023-01-19T13:08:21;5.83;;;2.40;;
13291;SDS011;6714;53.056;8.690;2023-01-19T13:11:14;5.93;;;2.40;;
13291;SDS011;6714;53.056;8.690;2023-01-19T13:17:17;5.60;;;2.30;;
13291;SDS011;6714;53.056;8.690;2023-01-19T13:20:03;6.80;;;2.20;;
13291;SDS011;6714;53.056;8.690;2023-01-19T13:22:50;5.27;;;2.00;;
13291;SDS011;6714;53.056;8.690;2023-01-19T13:25:34;7.23;;;2.43;;
13291;SDS011;6714;53.056;8.690;2023-01-19T13:28:17;5.07;;;2.33;;
13291;SDS011;6714;53.056;8.690;2023-01-19T13:31:00;5.30;;;1.83;;
13291;SDS011;6714;53.056;8.690;2023-01-19T13:33:45;4.43;;;2.17;;
13291;SDS011;6714;53.056;8.690;2023-01-19T13:36:28;5.47;;;1.83;;
13291;SDS011;6714;53.056;8.690;2023-01-19T13:39:12;4.93;;;1.80;;
13291;SDS011;6714;53.056;8.690;2023-01-19T13:41:58;5.50;;;2.20;;
13291;SDS011;6714;53.056;8.690;2023-01-19T13:44:42;5.43;;;1.70;;
13291;SDS011;6714;53.056;8.690;2023-01-19T13:47:32;5.07;;;1.93;;
13291;SDS011;6714;53.056;8.690;2023-01-19T13:50:18;3.80;;;1.73;;
13291;SDS011;6714;53.056;8.690;2023-01-19T13:53:00;5.30;;;1.63;;
13291;SDS011;6714;53.056;8.690;2023-01-19T13:55:45;4.03;;;1.80;;
13291;SDS011;6714;53.056;8.690;2023-01-19T13:58:29;3.90;;;1.80;;
13291;SDS011;6714;53.056;8.690;2023-01-19T14:01:19;6.07;;;2.00;;
13291;SDS011;6714;53.056;8.690;2023-01-19T14:04:01;4.43;;;1.80;;
13291;SDS011;6714;53.056;8.690;2023-01-19T14:06:43;6.17;;;1.80;;
13291;SDS011;6714;53.056;8.690;2023-01-19T14:09:27;5.93;;;1.90;;
13291;SDS011;6714;53.056;8.690;2023-01-19T14:12:10;6.27;;;1.83;;
13291;SDS011;6714;53.056;8.690;2023-01-19T14:14:54;7.57;;;1.80;;
13291;SDS011;6714;53.056;8.690;2023-01-19T14:17:36;6.70;;;1.97;;
13291;SDS011;6714;53.056;8.690;2023-01-19T14:20:28;5.80;;;1.80;;
13291;SDS011;6714;53.056;8.690;2023-01-19T14:29:20;5.20;;;2.00;;
13291;SDS011;6714;53.056;8.690;2023-01-19T14:32:05;6.77;;;1.87;;
13291;SDS011;6714;53.056;8.690;2023-01-19T14:34:48;4.87;;;1.60;;
13291;SDS011;6714;53.056;8.690;2023-01-19T14:37:32;6.37;;;2.13;;
13291;SDS011;6714;53.056;8.690;2023-01-19T14:40:16;6.33;;;1.60;;
13291;SDS011;6714;53.056;8.690;2023-01-19T14:42:59;6.13;;;1.70;;
13291;SDS011;6714;53.056;8.690;2023-01-19T14:45:42;4.33;;;1.40;;
13291;SDS011;6714;53.056;8.690;2023-01-19T14:48:29;3.67;;;1.73;;
13291;SDS011;6714;53.056;8.690;2023-01-19T14:51:11;4.80;;;1.60;;
13291;SDS011;6714;53.056;8.690;2023-01-19T14:53:56;3.83;;;1.57;;
13291;SDS011;6714;53.056;8.690;2023-01-19T14:56:42;6.40;;;1.57;;
13291;SDS011;6714;53.056;8.690;2023-01-19T14:59:24;6.07;;;1.90;;
13291;SDS011;6714;53.056;8.690;2023-01-19T15:02:06;3.97;;;1.40;;
13291;SDS011;6714;53.056;8.690;2023-01-19T15:04:50;6.07;;;1.53;;
13291;SDS011;6714;53.056;8.690;2023-01-19T15:07:35;6.37;;;1.63;;
13291;SDS011;6714;53.056;8.690;2023-01-19T15:10:18;4.13;;;1.60;;
13291;SDS011;6714;53.056;8.690;2023-01-19T15:13:01;3.73;;;1.30;;
13291;SDS011;6714;53.056;8.690;2023-01-19T15:15:43;3.00;;;1.20;;
13291;SDS011;6714;53.056;8.690;2023-01-19T15:18:26;4.30;;;1.33;;
13291;SDS011;6714;53.056;8.690;2023-01-19T15:21:10;3.20;;;1.20;;
13291;SDS011;6714;53.056;8.690;2023-01-19T15:23:53;3.90;;;1.00;;
13291;SDS011;6714;53.056;8.690;2023-01-19T15:26:37;1.47;;;1.30;;
13291;SDS011;6714;53.056;8.690;2023-01-19T15:29:21;2.90;;;1.37;;
13291;SDS011;6714;53.056;8.690;2023-01-19T15:32:03;3.03;;;1.20;;
13291;SDS011;6714;53.056;8.690;2023-01-19T15:34:46;2.53;;;1.20;;
13291;SDS011;6714;53.056;8.690;2023-01-19T15:37:29;3.20;;;1.20;;
13291;SDS011;6714;53.056;8.690;2023-01-19T15:40:12;4.73;;;1.60;;
13291;SDS011;6714;53.056;8.690;2023-01-19T15:42:54;2.77;;;1.30;;
13291;SDS011;6714;53.056;8.690;2023-01-19T15:45:37;1.37;;;1.00;;
13291;SDS011;6714;53.056;8.690;2023-01-19T15:48:19;3.07;;;1.13;;
13291;SDS011;6714;53.056;8.690;2023-01-19T15:51:01;2.70;;;1.30;;
13291;SDS011;6714;53.056;8.690;2023-01-19T15:53:46;2.07;;;1.00;;
13291;SDS011;6714;53.056;8.690;2023-01-19T15:56:28;3.57;;;1.30;;
13291;SDS011;6714;53.056;8.690;2023-01-19T15:59:11;1.77;;;1.27;;
13291;SDS011;6714;53.056;8.690;2023-01-19T16:01:54;2.70;;;1.20;;
13291;SDS011;6714;53.056;8.690;2023-01-19T16:04:36;1.53;;;1.20;;
13291;SDS011;6714;53.056;8.690;2023-01-19T16:07:19;2.87;;;1.20;;
13291;SDS011;6714;53.056;8.690;2023-01-19T16:10:03;3.10;;;1.30;;
13291;SDS011;6714;53.056;8.690;2023-01-19T16:12:48;2.23;;;1.20;;
13291;SDS011;6714;53.056;8.690;2023-01-19T16:15:32;4.27;;;1.40;;
13291;SDS011;6714;53.056;8.690;2023-01-19T16:18:14;6.93;;;1.77;;
13291;SDS011;6714;53.056;8.690;2023-01-19T16:20:57;6.77;;;1.50;;
13291;SDS011;6714;53.056;8.690;2023-01-19T16:23:39;2.77;;;1.53;;
13291;SDS011;6714;53.056;8.690;2023-01-19T16:26:23;1.60;;;1.27;;
13291;SDS011;6714;53.056;8.690;2023-01-19T16:29:06;3.87;;;1.60;;
13291;SDS011;6714;53.056;8.690;2023-01-19T16:31:49;2.73;;;1.50;;
13291;SDS011;6714;53.056;8.690;2023-01-19T16:34:32;3.83;;;1.40;;
13291;SDS011;6714;53.056;8.690;2023-01-19T16:37:14;4.10;;;1.60;;
13291;SDS011;6714;53.056;8.690;2023-01-19T16:39:56;5.13;;;1.40;;